sensor_id;sensor_type;location;lat;lon;timestamp;pressure;altitude;pressure_sealevel;temperature;humidity
74659;BME280;63186;51.204;6.536;2023-12-29T00:00:39;100557.16;;;9.22;98.64
74659;BME280;63186;51.204;6.536;2023-12-29T00:03:05;100556.53;;;9.25;98.39
74659;BME280;63186;51.204;6.536;2023-12-29T00:05:30;100554.09;;;9.24;98.28
74659;BME280;63186;51.204;6.536;2023-12-29T00:07:55;100559.81;;;9.28;98.16
74659;BME280;63186;51.204;6.536;2023-12-29T00:10:21;100560.13;;;9.26;98.27
74659;BME280;63186;51.204;6.536;2023-12-29T00:12:46;100552.88;;;9.30;97.93
74659;BME280;63186;51.204;6.536;2023-12-29T00:15:11;100561.03;;;9.35;97.97
74659;BME280;63186;51.204;6.536;2023-12-29T00:17:37;100557.47;;;9.35;97.04
74659;BME280;63186;51.204;6.536;2023-12-29T00:20:06;100559.91;;;9.36;97.63
74659;BME280;63186;51.204;6.536;2023-12-29T00:22:33;100565.50;;;9.31;98.08
74659;BME280;63186;51.204;6.536;2023-12-29T00:24:58;100563.69;;;9.27;98.38
74659;BME280;63186;51.204;6.536;2023-12-29T00:27:23;100552.06;;;9.30;98.13
74659;BME280;63186;51.204;6.536;2023-12-29T00:29:49;100549.53;;;9.33;98.52
74659;BME280;63186;51.204;6.536;2023-12-29T00:32:14;100553.59;;;9.36;97.68
74659;BME280;63186;51.204;6.536;2023-12-29T00:34:39;100562.03;;;9.39;97.76
74659;BME280;63186;51.204;6.536;2023-12-29T00:37:04;100547.06;;;9.45;97.82
74659;BME280;63186;51.204;6.536;2023-12-29T00:39:30;100539.81;;;9.49;97.06
74659;BME280;63186;51.204;6.536;2023-12-29T00:41:56;100543.06;;;9.51;96.52
74659;BME280;63186;51.204;6.536;2023-12-29T00:44:22;100544.09;;;9.56;96.18
74659;BME280;63186;51.204;6.536;2023-12-29T00:46:48;100529.84;;;9.54;96.61
74659;BME280;63186;51.204;6.536;2023-12-29T00:49:14;100541.53;;;9.59;95.69
74659;BME280;63186;51.204;6.536;2023-12-29T00:51:39;100536.66;;;9.56;96.42
74659;BME280;63186;51.204;6.536;2023-12-29T00:54:06;100537.28;;;9.53;96.41
74659;BME280;63186;51.204;6.536;2023-12-29T00:56:31;100529.47;;;9.46;97.15
74659;BME280;63186;51.204;6.536;2023-12-29T00:58:56;100520.31;;;9.37;96.94
74659;BME280;63186;51.204;6.536;2023-12-29T01:01:22;100523.69;;;9.34;97.10
74659;BME280;63186;51.204;6.536;2023-12-29T01:03:47;100517.78;;;9.41;97.33
74659;BME280;63186;51.204;6.536;2023-12-29T01:06:12;100512.28;;;9.41;97.48
74659;BME280;63186;51.204;6.536;2023-12-29T01:08:37;100507.09;;;9.39;97.42
74659;BME280;63186;51.204;6.536;2023-12-29T01:11:03;100495.97;;;9.44;96.59
74659;BME280;63186;51.204;6.536;2023-12-29T01:13:28;100504.72;;;9.46;96.69
74659;BME280;63186;51.204;6.536;2023-12-29T01:15:53;100498.13;;;9.47;97.10
74659;BME280;63186;51.204;6.536;2023-12-29T01:18:19;100497.63;;;9.45;97.08
74659;BME280;63186;51.204;6.536;2023-12-29T01:20:44;100491.09;;;9.41;97.64
74659;BME280;63186;51.204;6.536;2023-12-29T01:23:09;100483.19;;;9.40;97.82
74659;BME280;63186;51.204;6.536;2023-12-29T01:25:34;100480.34;;;9.31;97.90
74659;BME280;63186;51.204;6.536;2023-12-29T01:28:00;100492.13;;;9.32;98.29
74659;BME280;63186;51.204;6.536;2023-12-29T01:30:25;100494.28;;;9.35;98.22
74659;BME280;63186;51.204;6.536;2023-12-29T01:32:50;100488.47;;;9.36;97.87
74659;BME280;63186;51.204;6.536;2023-12-29T01:35:15;100489.47;;;9.40;98.01
74659;BME280;63186;51.204;6.536;2023-12-29T01:37:42;100486.53;;;9.37;98.24
74659;BME280;63186;51.204;6.536;2023-12-29T01:40:08;100483.19;;;9.40;98.12
74659;BME280;63186;51.204;6.536;2023-12-29T01:42:33;100459.75;;;9.42;97.99
74659;BME280;63186;51.204;6.536;2023-12-29T01:44:59;100480.94;;;9.42;98.11
74659;BME280;63186;51.204;6.536;2023-12-29T01:47:24;100478.50;;;9.40;98.21
74659;BME280;63186;51.204;6.536;2023-12-29T01:49:50;100484.59;;;9.37;98.61
74659;BME280;63186;51.204;6.536;2023-12-29T01:52:16;100478.91;;;9.34;99.08
74659;BME280;63186;51.204;6.536;2023-12-29T01:54:42;100483.88;;;9.32;99.23
74659;BME280;63186;51.204;6.536;2023-12-29T01:57:09;100487.28;;;9.29;99.45
74659;BME280;63186;51.204;6.536;2023-12-29T01:59:35;100488.41;;;9.28;99.80
74659;BME280;63186;51.204;6.536;2023-12-29T02:02:01;100488.06;;;9.29;99.71
74659;BME280;63186;51.204;6.536;2023-12-29T02:04:27;100475.66;;;9.32;100.00
74659;BME280;63186;51.204;6.536;2023-12-29T02:06:54;100489.09;;;9.33;100.00
74659;BME280;63186;51.204;6.536;2023-12-29T02:09:20;100497.44;;;9.28;100.00
74659;BME280;63186;51.204;6.536;2023-12-29T02:11:46;100487.91;;;9.12;100.00
74659;BME280;63186;51.204;6.536;2023-12-29T02:14:12;100500.25;;;9.01;100.00
74659;BME280;63186;51.204;6.536;2023-12-29T02:16:38;100497.28;;;8.97;100.00
74659;BME280;63186;51.204;6.536;2023-12-29T02:19:41;100496.69;;;9.00;100.00
74659;BME280;63186;51.204;6.536;2023-12-29T02:22:09;100484.25;;;9.03;100.00
74659;BME280;63186;51.204;6.536;2023-12-29T02:24:35;100469.09;;;9.05;100.00
74659;BME280;63186;51.204;6.536;2023-12-29T02:32:42;100494.94;;;8.90;100.00
74659;BME280;63186;51.204;6.536;2023-12-29T02:35:14;100490.69;;;8.84;100.00
74659;BME280;63186;51.204;6.536;2023-12-29T02:37:42;100480.13;;;8.78;100.00
74659;BME280;63186;51.204;6.536;2023-12-29T02:40:08;100464.88;;;8.72;100.00
74659;BME280;63186;51.204;6.536;2023-12-29T02:42:34;100467.28;;;8.73;100.00
74659;BME280;63186;51.204;6.536;2023-12-29T02:45:00;100450.56;;;8.75;100.00
74659;BME280;63186;51.204;6.536;2023-12-29T02:47:25;100448.09;;;8.73;100.00
74659;BME280;63186;51.204;6.536;2023-12-29T02:49:51;100451.34;;;8.75;100.00
74659;BME280;63186;51.204;6.536;2023-12-29T02:52:16;100450.22;;;8.76;100.00
74659;BME280;63186;51.204;6.536;2023-12-29T02:54:41;100442.81;;;8.77;100.00
74659;BME280;63186;51.204;6.536;2023-12-29T02:57:07;100444.44;;;8.78;100.00
74659;BME280;63186;51.204;6.536;2023-12-29T02:59:32;100438.94;;;8.78;100.00
74659;BME280;63186;51.204;6.536;2023-12-29T03:01:57;100432.34;;;8.79;100.00
74659;BME280;63186;51.204;6.536;2023-12-29T03:04:22;100437.00;;;8.78;100.00
74659;BME280;63186;51.204;6.536;2023-12-29T03:06:47;100434.97;;;8.84;100.00
74659;BME280;63186;51.204;6.536;2023-12-29T03:09:13;100431.81;;;8.90;100.00
74659;BME280;63186;51.204;6.536;2023-12-29T03:11:38;100432.03;;;8.94;100.00
74659;BME280;63186;51.204;6.536;2023-12-29T03:14:03;100432.19;;;8.97;100.00
74659;BME280;63186;51.204;6.536;2023-12-29T03:16:29;100441.16;;;9.03;100.00
74659;BME280;63186;51.204;6.536;2023-12-29T03:18:54;100434.75;;;9.08;100.00
74659;BME280;63186;51.204;6.536;2023-12-29T03:21:19;100435.03;;;9.06;100.00
74659;BME280;63186;51.204;6.536;2023-12-29T03:23:44;100433.72;;;9.04;100.00
74659;BME280;63186;51.204;6.536;2023-12-29T03:26:10;100435.88;;;9.07;100.00
74659;BME280;63186;51.204;6.536;2023-12-29T03:28:35;100429.75;;;9.10;100.00
74659;BME280;63186;51.204;6.536;2023-12-29T03:31:00;100423.94;;;9.11;100.00
74659;BME280;63186;51.204;6.536;2023-12-29T03:33:25;100437.06;;;9.14;100.00
74659;BME280;63186;51.204;6.536;2023-12-29T03:35:51;100440.78;;;9.18;100.00
74659;BME280;63186;51.204;6.536;2023-12-29T03:38:16;100437.13;;;9.23;100.00
74659;BME280;63186;51.204;6.536;2023-12-29T03:40:41;100427.34;;;9.31;100.00
74659;BME280;63186;51.204;6.536;2023-12-29T03:43:06;100434.34;;;9.37;100.00
74659;BME280;63186;51.204;6.536;2023-12-29T03:45:32;100433.03;;;9.34;100.00
74659;BME280;63186;51.204;6.536;2023-12-29T03:47:58;100418.91;;;9.27;100.00
74659;BME280;63186;51.204;6.536;2023-12-29T03:50:23;100414.34;;;9.22;100.00
74659;BME280;63186;51.204;6.536;2023-12-29T03:52:48;100398.25;;;9.30;100.00
74659;BME280;63186;51.204;6.536;2023-12-29T03:55:13;100408.00;;;9.36;100.00
74659;BME280;63186;51.204;6.536;2023-12-29T03:57:39;100416.28;;;9.44;100.00
74659;BME280;63186;51.204;6.536;2023-12-29T04:00:05;100427.28;;;9.44;100.00
74659;BME280;63186;51.204;6.536;2023-12-29T04:02:31;100410.31;;;9.42;100.00
74659;BME280;63186;51.204;6.536;2023-12-29T04:04:56;100425.16;;;9.41;100.00
74659;BME280;63186;51.204;6.536;2023-12-29T04:07:22;100426.72;;;9.34;100.00
74659;BME280;63186;51.204;6.536;2023-12-29T04:09:47;100425.34;;;9.22;100.00
74659;BME280;63186;51.204;6.536;2023-12-29T04:12:12;100431.66;;;9.09;100.00
74659;BME280;63186;51.204;6.536;2023-12-29T04:14:37;100413.41;;;8.91;100.00
74659;BME280;63186;51.204;6.536;2023-12-29T04:17:03;100414.44;;;8.81;100.00
74659;BME280;63186;51.204;6.536;2023-12-29T04:19:29;100399.72;;;8.77;100.00
74659;BME280;63186;51.204;6.536;2023-12-29T04:21:55;100409.56;;;8.78;100.00
74659;BME280;63186;51.204;6.536;2023-12-29T04:24:20;100403.56;;;8.76;100.00
74659;BME280;63186;51.204;6.536;2023-12-29T04:26:45;100407.44;;;8.75;100.00
74659;BME280;63186;51.204;6.536;2023-12-29T04:29:10;100405.59;;;8.84;100.00
74659;BME280;63186;51.204;6.536;2023-12-29T04:31:36;100402.84;;;8.84;100.00
74659;BME280;63186;51.204;6.536;2023-12-29T04:34:01;100416.56;;;8.84;100.00
74659;BME280;63186;51.204;6.536;2023-12-29T04:36:26;100403.75;;;8.93;100.00
74659;BME280;63186;51.204;6.536;2023-12-29T04:38:51;100396.63;;;8.92;100.00
74659;BME280;63186;51.204;6.536;2023-12-29T04:41:17;100392.88;;;8.88;100.00
74659;BME280;63186;51.204;6.536;2023-12-29T04:43:42;100400.81;;;8.90;100.00
74659;BME280;63186;51.204;6.536;2023-12-29T04:46:07;100408.41;;;8.93;100.00
74659;BME280;63186;51.204;6.536;2023-12-29T04:48:32;100412.81;;;8.94;100.00
74659;BME280;63186;51.204;6.536;2023-12-29T04:50:58;100406.78;;;8.92;100.00
74659;BME280;63186;51.204;6.536;2023-12-29T04:53:23;100417.16;;;8.95;100.00
74659;BME280;63186;51.204;6.536;2023-12-29T04:55:48;100427.03;;;8.96;100.00
74659;BME280;63186;51.204;6.536;2023-12-29T04:58:13;100417.06;;;9.00;100.00
74659;BME280;63186;51.204;6.536;2023-12-29T05:00:39;100411.44;;;9.05;100.00
74659;BME280;63186;51.204;6.536;2023-12-29T05:03:04;100417.25;;;9.04;100.00
74659;BME280;63186;51.204;6.536;2023-12-29T05:05:30;100419.50;;;9.02;100.00
74659;BME280;63186;51.204;6.536;2023-12-29T05:07:55;100422.13;;;9.07;100.00
74659;BME280;63186;51.204;6.536;2023-12-29T05:10:20;100421.28;;;9.06;100.00
74659;BME280;63186;51.204;6.536;2023-12-29T05:12:45;100407.78;;;9.10;100.00
74659;BME280;63186;51.204;6.536;2023-12-29T05:15:11;100416.63;;;9.07;100.00
74659;BME280;63186;51.204;6.536;2023-12-29T05:17:36;100414.38;;;9.09;100.00
74659;BME280;63186;51.204;6.536;2023-12-29T05:20:02;100418.78;;;8.96;100.00
74659;BME280;63186;51.204;6.536;2023-12-29T05:22:27;100410.56;;;8.96;100.00
74659;BME280;63186;51.204;6.536;2023-12-29T05:24:53;100420.63;;;9.01;100.00
74659;BME280;63186;51.204;6.536;2023-12-29T05:27:22;100425.72;;;8.93;100.00
74659;BME280;63186;51.204;6.536;2023-12-29T05:29:48;100426.31;;;8.90;100.00
74659;BME280;63186;51.204;6.536;2023-12-29T05:32:13;100430.78;;;8.86;100.00
74659;BME280;63186;51.204;6.536;2023-12-29T05:34:38;100411.88;;;8.85;100.00
74659;BME280;63186;51.204;6.536;2023-12-29T05:37:03;100419.28;;;8.98;100.00
74659;BME280;63186;51.204;6.536;2023-12-29T05:39:29;100421.84;;;8.94;100.00
74659;BME280;63186;51.204;6.536;2023-12-29T05:41:54;100425.41;;;8.95;100.00
74659;BME280;63186;51.204;6.536;2023-12-29T05:44:19;100409.34;;;8.88;100.00
74659;BME280;63186;51.204;6.536;2023-12-29T05:46:47;100411.78;;;8.90;100.00
74659;BME280;63186;51.204;6.536;2023-12-29T05:49:13;100419.00;;;8.86;100.00
74659;BME280;63186;51.204;6.536;2023-12-29T05:51:38;100418.31;;;8.80;100.00
74659;BME280;63186;51.204;6.536;2023-12-29T05:54:03;100419.63;;;8.83;100.00
74659;BME280;63186;51.204;6.536;2023-12-29T05:56:29;100417.78;;;8.78;100.00
74659;BME280;63186;51.204;6.536;2023-12-29T05:58:54;100424.72;;;8.76;100.00
74659;BME280;63186;51.204;6.536;2023-12-29T06:01:19;100431.13;;;8.71;100.00
74659;BME280;63186;51.204;6.536;2023-12-29T06:03:45;100425.63;;;8.71;100.00
74659;BME280;63186;51.204;6.536;2023-12-29T06:06:10;100430.00;;;8.72;100.00
74659;BME280;63186;51.204;6.536;2023-12-29T06:08:35;100425.94;;;8.69;100.00
74659;BME280;63186;51.204;6.536;2023-12-29T06:11:00;100427.78;;;8.74;100.00
74659;BME280;63186;51.204;6.536;2023-12-29T06:13:27;100434.88;;;8.75;100.00
74659;BME280;63186;51.204;6.536;2023-12-29T06:15:52;100429.31;;;8.80;100.00
74659;BME280;63186;51.204;6.536;2023-12-29T06:18:18;100428.19;;;8.81;100.00
74659;BME280;63186;51.204;6.536;2023-12-29T06:20:43;100423.50;;;8.82;100.00
74659;BME280;63186;51.204;6.536;2023-12-29T06:23:08;100417.78;;;8.78;100.00
74659;BME280;63186;51.204;6.536;2023-12-29T06:25:33;100436.81;;;8.75;100.00
74659;BME280;63186;51.204;6.536;2023-12-29T06:27:59;100427.66;;;8.79;100.00
74659;BME280;63186;51.204;6.536;2023-12-29T06:30:25;100419.94;;;8.81;100.00
74659;BME280;63186;51.204;6.536;2023-12-29T06:32:50;100427.06;;;8.82;100.00
74659;BME280;63186;51.204;6.536;2023-12-29T06:35:17;100418.50;;;8.84;100.00
74659;BME280;63186;51.204;6.536;2023-12-29T06:37:42;100421.97;;;8.89;100.00
74659;BME280;63186;51.204;6.536;2023-12-29T06:40:07;100427.13;;;8.91;100.00
74659;BME280;63186;51.204;6.536;2023-12-29T06:42:33;100432.31;;;8.92;100.00
74659;BME280;63186;51.204;6.536;2023-12-29T06:44:58;100426.81;;;8.92;100.00
74659;BME280;63186;51.204;6.536;2023-12-29T06:47:24;100420.50;;;8.92;100.00
74659;BME280;63186;51.204;6.536;2023-12-29T06:49:49;100422.03;;;8.98;100.00
74659;BME280;63186;51.204;6.536;2023-12-29T06:52:15;100428.84;;;9.01;100.00
74659;BME280;63186;51.204;6.536;2023-12-29T06:54:41;100432.09;;;9.03;100.00
74659;BME280;63186;51.204;6.536;2023-12-29T06:57:06;100428.53;;;9.02;100.00
74659;BME280;63186;51.204;6.536;2023-12-29T06:59:31;100424.97;;;9.02;100.00
74659;BME280;63186;51.204;6.536;2023-12-29T07:01:57;100423.66;;;8.99;100.00
74659;BME280;63186;51.204;6.536;2023-12-29T07:04:22;100416.84;;;8.96;100.00
74659;BME280;63186;51.204;6.536;2023-12-29T07:06:47;100417.16;;;8.95;100.00
74659;BME280;63186;51.204;6.536;2023-12-29T07:09:12;100427.53;;;8.98;100.00
74659;BME280;63186;51.204;6.536;2023-12-29T07:11:38;100428.22;;;9.04;100.00
74659;BME280;63186;51.204;6.536;2023-12-29T07:14:04;100422.72;;;9.04;100.00
74659;BME280;63186;51.204;6.536;2023-12-29T07:16:29;100423.22;;;9.06;100.00
74659;BME280;63186;51.204;6.536;2023-12-29T07:18:54;100420.31;;;9.02;100.00
74659;BME280;63186;51.204;6.536;2023-12-29T07:21:20;100424.66;;;9.03;100.00
74659;BME280;63186;51.204;6.536;2023-12-29T07:23:45;100425.59;;;8.98;100.00
74659;BME280;63186;51.204;6.536;2023-12-29T07:26:11;100422.56;;;9.00;100.00
74659;BME280;63186;51.204;6.536;2023-12-29T07:28:36;100429.66;;;9.01;100.00
74659;BME280;63186;51.204;6.536;2023-12-29T07:31:02;100434.44;;;8.95;100.00
74659;BME280;63186;51.204;6.536;2023-12-29T07:33:27;100434.56;;;8.90;100.00
74659;BME280;63186;51.204;6.536;2023-12-29T07:35:53;100438.53;;;8.84;100.00
74659;BME280;63186;51.204;6.536;2023-12-29T07:38:19;100438.34;;;8.81;100.00
74659;BME280;63186;51.204;6.536;2023-12-29T07:40:44;100443.41;;;8.74;100.00
74659;BME280;63186;51.204;6.536;2023-12-29T07:43:10;100440.41;;;8.61;100.00
74659;BME280;63186;51.204;6.536;2023-12-29T07:45:35;100423.31;;;8.51;100.00
74659;BME280;63186;51.204;6.536;2023-12-29T07:48:04;100423.22;;;8.42;100.00
74659;BME280;63186;51.204;6.536;2023-12-29T07:50:29;100400.56;;;8.36;100.00
74659;BME280;63186;51.204;6.536;2023-12-29T07:52:54;100422.25;;;8.33;100.00
74659;BME280;63186;51.204;6.536;2023-12-29T07:55:20;100419.31;;;8.29;100.00
74659;BME280;63186;51.204;6.536;2023-12-29T07:57:45;100437.00;;;8.23;100.00
74659;BME280;63186;51.204;6.536;2023-12-29T08:00:12;100450.69;;;8.23;100.00
74659;BME280;63186;51.204;6.536;2023-12-29T08:02:38;100443.59;;;8.22;100.00
74659;BME280;63186;51.204;6.536;2023-12-29T08:05:03;100447.44;;;8.21;100.00
74659;BME280;63186;51.204;6.536;2023-12-29T08:07:28;100448.53;;;8.20;100.00
74659;BME280;63186;51.204;6.536;2023-12-29T08:09:53;100457.59;;;8.21;100.00
74659;BME280;63186;51.204;6.536;2023-12-29T08:12:19;100442.88;;;8.16;100.00
74659;BME280;63186;51.204;6.536;2023-12-29T08:14:44;100460.13;;;8.17;100.00
74659;BME280;63186;51.204;6.536;2023-12-29T08:17:10;100454.16;;;8.15;100.00
74659;BME280;63186;51.204;6.536;2023-12-29T08:19:35;100456.34;;;8.13;100.00
74659;BME280;63186;51.204;6.536;2023-12-29T08:22:01;100457.47;;;8.12;100.00
74659;BME280;63186;51.204;6.536;2023-12-29T08:24:26;100449.03;;;8.08;100.00
74659;BME280;63186;51.204;6.536;2023-12-29T08:26:52;100448.03;;;8.04;100.00
74659;BME280;63186;51.204;6.536;2023-12-29T08:29:17;100453.00;;;8.02;100.00
74659;BME280;63186;51.204;6.536;2023-12-29T08:31:44;100453.28;;;8.01;100.00
74659;BME280;63186;51.204;6.536;2023-12-29T08:34:10;100428.34;;;8.02;100.00
74659;BME280;63186;51.204;6.536;2023-12-29T08:36:35;100435.94;;;8.05;100.00
74659;BME280;63186;51.204;6.536;2023-12-29T08:39:01;100430.16;;;8.07;100.00
74659;BME280;63186;51.204;6.536;2023-12-29T08:41:26;100438.06;;;8.08;100.00
74659;BME280;63186;51.204;6.536;2023-12-29T08:43:51;100430.97;;;8.07;100.00
74659;BME280;63186;51.204;6.536;2023-12-29T08:46:16;100445.31;;;8.18;100.00
74659;BME280;63186;51.204;6.536;2023-12-29T08:48:42;100441.75;;;8.18;100.00
74659;BME280;63186;51.204;6.536;2023-12-29T08:51:07;100465.31;;;8.19;100.00
74659;BME280;63186;51.204;6.536;2023-12-29T08:53:32;100477.72;;;8.16;100.00
74659;BME280;63186;51.204;6.536;2023-12-29T08:56:01;100466.81;;;8.11;100.00
74659;BME280;63186;51.204;6.536;2023-12-29T08:58:27;100458.59;;;8.11;100.00
74659;BME280;63186;51.204;6.536;2023-12-29T09:00:53;100461.84;;;8.13;100.00
74659;BME280;63186;51.204;6.536;2023-12-29T09:03:18;100464.00;;;8.16;100.00
74659;BME280;63186;51.204;6.536;2023-12-29T09:05:43;100465.00;;;8.20;100.00
74659;BME280;63186;51.204;6.536;2023-12-29T09:08:09;100468.16;;;8.27;100.00
74659;BME280;63186;51.204;6.536;2023-12-29T09:10:34;100476.91;;;8.29;100.00
74659;BME280;63186;51.204;6.536;2023-12-29T09:12:59;100475.19;;;8.33;100.00
74659;BME280;63186;51.204;6.536;2023-12-29T09:15:25;100474.06;;;8.34;100.00
74659;BME280;63186;51.204;6.536;2023-12-29T09:17:50;100472.69;;;8.37;100.00
74659;BME280;63186;51.204;6.536;2023-12-29T09:20:16;100473.50;;;8.37;100.00
74659;BME280;63186;51.204;6.536;2023-12-29T09:22:41;100464.97;;;8.39;100.00
74659;BME280;63186;51.204;6.536;2023-12-29T09:25:07;100474.31;;;8.38;100.00
74659;BME280;63186;51.204;6.536;2023-12-29T09:27:32;100475.75;;;8.35;100.00
74659;BME280;63186;51.204;6.536;2023-12-29T09:29:57;100490.00;;;8.32;100.00
74659;BME280;63186;51.204;6.536;2023-12-29T09:32:22;100492.56;;;8.29;100.00
74659;BME280;63186;51.204;6.536;2023-12-29T09:34:48;100491.22;;;8.26;100.00
74659;BME280;63186;51.204;6.536;2023-12-29T09:37:13;100489.59;;;8.25;100.00
74659;BME280;63186;51.204;6.536;2023-12-29T09:39:39;100485.72;;;8.26;100.00
74659;BME280;63186;51.204;6.536;2023-12-29T09:42:05;100485.22;;;8.24;100.00
74659;BME280;63186;51.204;6.536;2023-12-29T09:44:32;100479.44;;;8.26;100.00
74659;BME280;63186;51.204;6.536;2023-12-29T09:47:01;100485.41;;;8.28;100.00
74659;BME280;63186;51.204;6.536;2023-12-29T09:49:31;100500.06;;;8.23;100.00
74659;BME280;63186;51.204;6.536;2023-12-29T09:52:02;100490.78;;;8.19;100.00
74659;BME280;63186;51.204;6.536;2023-12-29T09:54:28;100485.63;;;8.18;100.00
74659;BME280;63186;51.204;6.536;2023-12-29T09:56:54;100491.31;;;8.21;100.00
74659;BME280;63186;51.204;6.536;2023-12-29T09:59:21;100492.34;;;8.25;100.00
74659;BME280;63186;51.204;6.536;2023-12-29T10:01:46;100497.44;;;8.32;100.00
74659;BME280;63186;51.204;6.536;2023-12-29T10:04:12;100493.72;;;8.41;100.00
74659;BME280;63186;51.204;6.536;2023-12-29T10:06:41;100490.38;;;8.45;100.00
74659;BME280;63186;51.204;6.536;2023-12-29T10:09:12;100492.53;;;8.48;100.00
74659;BME280;63186;51.204;6.536;2023-12-29T10:11:38;100477.16;;;8.47;100.00
74659;BME280;63186;51.204;6.536;2023-12-29T10:14:24;100505.84;;;8.54;100.00
74659;BME280;63186;51.204;6.536;2023-12-29T10:17:06;100500.44;;;8.49;100.00
74659;BME280;63186;51.204;6.536;2023-12-29T10:19:40;100505.63;;;8.51;100.00
74659;BME280;63186;51.204;6.536;2023-12-29T10:22:21;100500.94;;;8.51;100.00
74659;BME280;63186;51.204;6.536;2023-12-29T10:24:50;100512.22;;;8.50;100.00
74659;BME280;63186;51.204;6.536;2023-12-29T10:27:16;100498.00;;;8.48;100.00
74659;BME280;63186;51.204;6.536;2023-12-29T10:29:41;100490.38;;;8.45;100.00
74659;BME280;63186;51.204;6.536;2023-12-29T10:32:06;100482.44;;;8.43;100.00
74659;BME280;63186;51.204;6.536;2023-12-29T10:34:32;100481.91;;;8.41;100.00
74659;BME280;63186;51.204;6.536;2023-12-29T10:37:01;100484.16;;;8.39;100.00
74659;BME280;63186;51.204;6.536;2023-12-29T10:39:32;100483.03;;;8.40;100.00
74659;BME280;63186;51.204;6.536;2023-12-29T10:42:07;100483.25;;;8.43;100.00
74659;BME280;63186;51.204;6.536;2023-12-29T10:44:34;100487.53;;;8.50;100.00
74659;BME280;63186;51.204;6.536;2023-12-29T10:47:20;100484.88;;;8.58;100.00
74659;BME280;63186;51.204;6.536;2023-12-29T10:49:45;100465.59;;;8.63;100.00
74659;BME280;63186;51.204;6.536;2023-12-29T10:52:15;100459.06;;;8.73;100.00
74659;BME280;63186;51.204;6.536;2023-12-29T10:54:43;100468.63;;;8.89;100.00
74659;BME280;63186;51.204;6.536;2023-12-29T10:57:12;100459.06;;;9.01;100.00
74659;BME280;63186;51.204;6.536;2023-12-29T10:59:38;100465.34;;;9.15;100.00
74659;BME280;63186;51.204;6.536;2023-12-29T11:02:04;100465.09;;;9.25;100.00
74659;BME280;63186;51.204;6.536;2023-12-29T11:04:29;100457.88;;;9.29;100.00
74659;BME280;63186;51.204;6.536;2023-12-29T11:06:55;100464.47;;;9.28;100.00
74659;BME280;63186;51.204;6.536;2023-12-29T11:09:38;100466.09;;;9.29;100.00
74659;BME280;63186;51.204;6.536;2023-12-29T11:12:04;100470.97;;;9.32;100.00
74659;BME280;63186;51.204;6.536;2023-12-29T11:14:31;100474.41;;;9.38;100.00
74659;BME280;63186;51.204;6.536;2023-12-29T11:16:57;100470.53;;;9.39;100.00
74659;BME280;63186;51.204;6.536;2023-12-29T11:19:26;100468.44;;;9.36;100.00
74659;BME280;63186;51.204;6.536;2023-12-29T11:21:54;100484.09;;;9.35;100.00
74659;BME280;63186;51.204;6.536;2023-12-29T11:24:19;100469.66;;;9.30;100.00
74659;BME280;63186;51.204;6.536;2023-12-29T11:26:45;100454.84;;;9.17;100.00
74659;BME280;63186;51.204;6.536;2023-12-29T11:29:14;100475.59;;;9.09;100.00
74659;BME280;63186;51.204;6.536;2023-12-29T11:31:40;100475.81;;;8.99;100.00
74659;BME280;63186;51.204;6.536;2023-12-29T11:34:12;100455.91;;;8.93;100.00
74659;BME280;63186;51.204;6.536;2023-12-29T11:36:45;100474.59;;;8.91;100.00
74659;BME280;63186;51.204;6.536;2023-12-29T11:39:36;100473.63;;;8.87;100.00
74659;BME280;63186;51.204;6.536;2023-12-29T11:42:26;100473.00;;;8.90;100.00
74659;BME280;63186;51.204;6.536;2023-12-29T11:44:54;100477.03;;;8.93;100.00
74659;BME280;63186;51.204;6.536;2023-12-29T11:47:36;100467.56;;;8.99;100.00
74659;BME280;63186;51.204;6.536;2023-12-29T11:50:03;100470.84;;;9.01;100.00
74659;BME280;63186;51.204;6.536;2023-12-29T11:52:39;100470.84;;;9.01;100.00
74659;BME280;63186;51.204;6.536;2023-12-29T11:55:14;100459.50;;;8.80;100.00
74659;BME280;63186;51.204;6.536;2023-12-29T11:57:40;100456.94;;;8.56;100.00
74659;BME280;63186;51.204;6.536;2023-12-29T12:00:07;100464.47;;;8.51;100.00
74659;BME280;63186;51.204;6.536;2023-12-29T12:02:33;100448.72;;;8.42;100.00
74659;BME280;63186;51.204;6.536;2023-12-29T12:04:58;100455.22;;;8.47;100.00
74659;BME280;63186;51.204;6.536;2023-12-29T12:09:49;100446.56;;;8.67;100.00
74659;BME280;63186;51.204;6.536;2023-12-29T12:12:38;100440.47;;;8.84;100.00
74659;BME280;63186;51.204;6.536;2023-12-29T12:17:53;100442.75;;;9.04;100.00
74659;BME280;63186;51.204;6.536;2023-12-29T12:20:19;100441.53;;;9.10;100.00
74659;BME280;63186;51.204;6.536;2023-12-29T12:22:48;100445.19;;;9.19;100.00
74659;BME280;63186;51.204;6.536;2023-12-29T12:25:15;100443.31;;;9.29;100.00
74659;BME280;63186;51.204;6.536;2023-12-29T12:27:41;100442.25;;;9.38;100.00
74659;BME280;63186;51.204;6.536;2023-12-29T12:30:07;100438.09;;;9.41;100.00
74659;BME280;63186;51.204;6.536;2023-12-29T12:32:34;100431.25;;;9.38;100.00
74659;BME280;63186;51.204;6.536;2023-12-29T12:35:00;100431.09;;;9.35;100.00
74659;BME280;63186;51.204;6.536;2023-12-29T12:37:27;100432.50;;;9.32;100.00
74659;BME280;63186;51.204;6.536;2023-12-29T12:39:53;100418.91;;;9.27;100.00
74659;BME280;63186;51.204;6.536;2023-12-29T12:42:22;100421.47;;;9.23;100.00
74659;BME280;63186;51.204;6.536;2023-12-29T12:45:04;100421.13;;;9.25;100.00
74659;BME280;63186;51.204;6.536;2023-12-29T12:47:37;100422.09;;;9.20;100.00
74659;BME280;63186;51.204;6.536;2023-12-29T12:50:04;100418.31;;;9.16;100.00
74659;BME280;63186;51.204;6.536;2023-12-29T12:52:31;100408.59;;;9.10;100.00
74659;BME280;63186;51.204;6.536;2023-12-29T12:54:57;100410.63;;;9.05;100.00
74659;BME280;63186;51.204;6.536;2023-12-29T12:57:22;100404.75;;;8.97;100.00
74659;BME280;63186;51.204;6.536;2023-12-29T12:59:49;100407.81;;;8.96;100.00